Time;durP1;ratioP1;P1;durP2;ratioP2;P2;SDS_P1;SDS_P2;PMS_P1;PMS_P2;Temp;Humidity;BMP_temperature;BMP_pressure;BME280_temperature;BME280_humidity;BME280_pressure;Samples;Min_cycle;Max_cycle;Signal;HPM_P1;HPM_P2
2022/10/26 00:02:02;;;;;;;17.90;6.40;;;;;;;8.45;100.00;101441.06;5055470;28;20423;-76
2022/10/26 00:04:27;;;;;;;10.45;5.65;;;;;;;8.46;100.00;101434.81;5055812;28;20033;-74
2022/10/26 00:06:52;;;;;;;13.65;6.00;;;;;;;8.45;100.00;101440.25;5055566;28;20033;-75
2022/10/26 00:09:18;;;;;;;13.38;6.78;;;;;;;8.45;100.00;101429.63;5055355;28;20041;-76
2022/10/26 00:11:44;;;;;;;12.23;5.30;;;;;;;8.42;100.00;101435.97;5055906;28;20111;-76
2022/10/26 00:14:09;;;;;;;13.00;6.28;;;;;;;8.39;100.00;101424.72;5055372;28;20038;-76
2022/10/26 00:16:34;;;;;;;12.45;6.70;;;;;;;8.36;100.00;101424.94;5055943;28;20067;-76
2022/10/26 00:19:00;;;;;;;10.18;5.80;;;;;;;8.29;100.00;101422.72;5055681;28;20033;-76
2022/10/26 00:21:25;;;;;;;12.88;6.70;;;;;;;8.25;100.00;101418.59;5054900;28;20206;-76
2022/10/26 00:23:51;;;;;;;13.07;6.28;;;;;;;8.19;100.00;101411.09;5055416;28;20440;-75
2022/10/26 00:26:16;;;;;;;12.70;6.60;;;;;;;8.15;100.00;101411.41;5055008;28;20033;-76
2022/10/26 00:28:41;;;;;;;13.15;5.95;;;;;;;8.11;100.00;101405.50;5054460;28;20404;-76
2022/10/26 00:31:12;;;;;;;12.65;6.35;;;;;;;8.08;100.00;101400.41;5037098;28;20110;-77
2022/10/26 00:33:37;;;;;;;15.40;7.15;;;;;;;8.06;100.00;101408.47;5055227;28;20126;-76
2022/10/26 00:36:03;;;;;;;14.52;6.90;;;;;;;8.04;100.00;101404.22;5055237;28;20458;-76
2022/10/26 00:38:28;;;;;;;12.85;6.78;;;;;;;8.01;100.00;101401.81;5054731;28;20416;-76
2022/10/26 00:40:54;;;;;;;13.90;7.68;;;;;;;7.98;100.00;101394.06;5055196;28;20090;-76
2022/10/26 00:43:19;;;;;;;12.18;7.00;;;;;;;7.98;100.00;101394.91;5054697;28;20029;-76
2022/10/26 00:45:46;;;;;;;13.98;7.28;;;;;;;8.00;100.00;101392.16;5037248;28;20047;-76
2022/10/26 00:48:24;;;;;;;12.70;6.90;;;;;;;8.00;100.00;101393.00;5053132;28;20052;-76
2022/10/26 00:50:51;;;;;;;14.57;7.10;;;;;;;8.01;100.00;101393.84;5054989;28;20075;-76
2022/10/26 00:53:18;;;;;;;15.95;6.97;;;;;;;8.01;100.00;101391.19;5054571;28;20478;-76
2022/10/26 00:55:46;;;;;;;12.35;7.03;;;;;;;8.02;100.00;101395.56;5054864;28;20033;-76
2022/10/26 00:58:13;;;;;;;13.40;7.00;;;;;;;8.01;100.00;101399.16;5054424;28;20031;-76
2022/10/26 01:00:40;;;;;;;10.88;6.43;;;;;;;8.00;100.00;101395.66;5054947;28;20060;-76
2022/10/26 01:03:07;;;;;;;9.82;6.32;;;;;;;8.00;100.00;101398.31;5054609;28;20209;-76
2022/10/26 01:05:35;;;;;;;11.55;6.43;;;;;;;7.99;100.00;101393.97;5054320;28;20090;-76
2022/10/26 01:08:01;;;;;;;11.05;6.30;;;;;;;8.02;100.00;101390.25;5054221;28;20469;-76
2022/10/26 01:10:27;;;;;;;10.23;6.20;;;;;;;8.06;100.00;101383.75;5036294;28;20424;-76
2022/10/26 01:12:54;;;;;;;12.30;6.40;;;;;;;8.09;100.00;101387.06;5054639;28;20136;-76
2022/10/26 01:15:28;;;;;;;13.20;6.55;;;;;;;8.12;100.00;101381.53;5054237;28;20037;-76
2022/10/26 01:18:05;;;;;;;10.82;5.93;;;;;;;8.17;100.00;101381.19;5036810;28;20354;-76
2022/10/26 01:20:33;;;;;;;12.13;6.65;;;;;;;8.22;100.00;101380.88;5036118;28;20477;-76
2022/10/26 01:23:18;;;;;;;10.85;5.90;;;;;;;8.22;100.00;101370.25;5054385;28;20029;-76
2022/10/26 01:26:08;;;;;;;17.33;6.07;;;;;;;8.25;100.00;101364.72;5054411;28;20103;-76
2022/10/26 01:29:19;;;;;;;20.10;5.97;;;;;;;8.26;100.00;101369.94;5053903;28;20108;-76
2022/10/26 01:31:57;;;;;;;12.90;5.80;;;;;;;8.29;100.00;101360.91;5054095;28;20021;-75
2022/10/26 01:34:42;;;;;;;14.68;6.35;;;;;;;8.29;100.00;101356.44;5053768;28;20461;-76
2022/10/26 01:37:13;;;;;;;10.27;5.53;;;;;;;8.33;100.00;101354.44;5054180;28;20104;-75
2022/10/26 01:39:44;;;;;;;9.50;6.00;;;;;;;8.36;100.00;101350.69;5054300;28;20483;-76
2022/10/26 01:42:12;;;;;;;12.75;6.32;;;;;;;8.37;100.00;101349.75;5054052;28;20461;-75
2022/10/26 01:44:43;;;;;;;11.05;5.75;;;;;;;8.36;100.00;101345.38;5053907;28;20029;-75
2022/10/26 01:47:12;;;;;;;13.05;6.15;;;;;;;8.37;100.00;101344.44;5053768;28;20112;-75
2022/10/26 01:49:41;;;;;;;14.57;6.55;;;;;;;8.35;100.00;101360.47;5053791;28;20025;-76
2022/10/26 01:52:10;;;;;;;14.00;5.72;;;;;;;8.35;100.00;101341.91;5053834;28;20025;-76
2022/10/26 01:54:36;;;;;;;12.35;6.38;;;;;;;8.35;100.00;101349.84;5053047;28;20547;-76
2022/10/26 01:57:05;;;;;;;12.73;5.78;;;;;;;8.35;100.00;101339.25;5053788;28;20033;-75
2022/10/26 01:59:37;;;;;;;10.23;5.80;;;;;;;8.39;100.00;101346.03;5053327;28;20032;-75
2022/10/26 02:02:49;;;;;;;9.00;5.68;;;;;;;8.41;100.00;101333.50;5054017;28;20029;-76
2022/10/26 02:05:23;;;;;;;13.32;6.10;;;;;;;8.41;100.00;101320.22;4981701;28;20043;-77
2022/10/26 02:08:12;;;;;;;10.10;6.07;;;;;;;8.40;100.00;101323.84;5053670;28;20035;-75
2022/10/26 02:10:55;;;;;;;9.82;5.30;;;;;;;8.40;100.00;101323.84;5052860;28;20025;-75
2022/10/26 02:13:26;;;;;;;8.85;5.40;;;;;;;8.37;100.00;101318.75;5053157;28;20028;-76
2022/10/26 02:15:58;;;;;;;12.35;5.43;;;;;;;8.38;100.00;101323.13;5053166;28;20025;-75
2022/10/26 02:19:07;;;;;;;13.93;5.60;;;;;;;8.39;100.00;101330.13;5052989;28;20087;-76
2022/10/26 02:21:40;;;;;;;13.13;6.30;;;;;;;8.40;100.00;101336.25;5051437;28;20111;-75
2022/10/26 02:24:09;;;;;;;12.00;5.53;;;;;;;8.38;100.00;101330.22;5053072;28;20047;-75
2022/10/26 02:26:36;;;;;;;12.43;5.75;;;;;;;8.35;100.00;101335.75;5052788;28;20029;-75
2022/10/26 02:29:08;;;;;;;7.75;5.00;;;;;;;8.30;100.00;101336.09;5052849;28;20086;-75
2022/10/26 02:31:35;;;;;;;9.50;5.78;;;;;;;8.27;100.00;101325.69;5052751;28;20025;-75
2022/10/26 02:34:05;;;;;;;8.60;5.50;;;;;;;8.20;100.00;101325.31;5053049;28;20029;-75
2022/10/26 02:36:35;;;;;;;15.18;6.45;;;;;;;8.15;100.00;101327.47;5052785;28;20465;-76
2022/10/26 02:39:03;;;;;;;7.90;5.22;;;;;;;8.11;100.00;101323.31;5053197;28;20063;-76
2022/10/26 02:41:29;;;;;;;12.05;5.35;;;;;;;8.07;100.00;101328.00;5052438;28;20025;-75
2022/10/26 02:44:29;;;;;;;14.65;6.45;;;;;;;8.08;100.00;101318.25;5052770;28;20453;-75
2022/10/26 02:46:55;;;;;;;14.38;6.07;;;;;;;8.11;100.00;101326.81;5053045;28;20055;-75
2022/10/26 02:49:21;;;;;;;10.65;5.97;;;;;;;8.16;100.00;101317.69;5052447;28;20120;-76
2022/10/26 02:52:01;;;;;;;12.57;6.43;;;;;;;8.20;100.00;101322.66;5052495;28;20080;-76
2022/10/26 02:54:45;;;;;;;12.75;6.32;;;;;;;8.24;100.00;101321.47;5052268;28;20116;-75
2022/10/26 02:57:28;;;;;;;14.25;6.82;;;;;;;8.29;100.00;101315.84;5052739;28;20112;-75
2022/10/26 02:59:55;;;;;;;9.52;6.05;;;;;;;8.32;100.00;101312.13;5052797;28;20044;-75
2022/10/26 03:02:21;;;;;;;15.50;6.57;;;;;;;8.33;100.00;101316.44;5052613;28;20112;-75
2022/10/26 03:04:49;;;;;;;13.45;6.78;;;;;;;8.35;100.00;101312.72;5052765;28;20029;-75
2022/10/26 03:07:20;;;;;;;19.65;6.80;;;;;;;8.39;100.00;101308.91;5052264;28;20079;-75
2022/10/26 03:09:46;;;;;;;10.55;5.57;;;;;;;8.42;100.00;101302.50;5052635;28;20037;-75
2022/10/26 03:12:11;;;;;;;13.48;6.70;;;;;;;8.46;100.00;101307.53;5052548;28;20452;-75
2022/10/26 03:14:36;;;;;;;13.13;6.28;;;;;;;8.47;100.00;101297.75;5052121;28;20416;-75
2022/10/26 03:17:02;;;;;;;16.38;6.35;;;;;;;8.48;100.00;101294.16;5052153;28;20056;-75
2022/10/26 03:19:27;;;;;;;10.05;6.28;;;;;;;8.50;100.00;101289.56;5051763;28;20104;-76
2022/10/26 03:21:52;;;;;;;11.13;5.75;;;;;;;8.50;100.00;101286.91;5052005;28;20048;-75
2022/10/26 03:24:18;;;;;;;15.27;6.32;;;;;;;8.51;100.00;101291.28;5052268;28;20491;-75
2022/10/26 03:26:43;;;;;;;14.88;6.93;;;;;;;8.52;100.00;101284.97;5051606;28;20045;-76
2022/10/26 03:29:08;;;;;;;15.55;6.53;;;;;;;8.57;100.00;101295.25;5052479;28;20033;-75
2022/10/26 03:31:34;;;;;;;18.05;6.60;;;;;;;8.62;100.00;101287.81;5052852;28;20029;-75
2022/10/26 03:33:59;;;;;;;15.82;7.72;;;;;;;8.67;100.00;101280.31;5056408;28;20103;-75
2022/10/26 03:36:25;;;;;;;17.95;6.85;;;;;;;8.72;100.00;101294.13;5056027;28;20064;-77
2022/10/26 03:38:50;;;;;;;15.82;7.40;;;;;;;8.77;100.00;101286.63;5056047;28;20376;-75
2022/10/26 03:41:15;;;;;;;12.55;6.70;;;;;;;8.81;100.00;101284.63;5056549;28;20063;-75
2022/10/26 03:43:41;;;;;;;16.40;6.88;;;;;;;8.86;100.00;101279.78;5055903;28;20083;-75
2022/10/26 03:46:06;;;;;;;12.60;6.75;;;;;;;8.92;100.00;101284.63;5056198;28;20029;-74
2022/10/26 03:48:31;;;;;;;15.13;6.68;;;;;;;8.92;100.00;101289.94;5037808;28;20473;-74
2022/10/26 03:50:58;;;;;;;13.80;6.30;;;;;;;8.95;100.00;101284.38;5056318;28;20029;-74
2022/10/26 03:53:23;;;;;;;12.15;6.03;;;;;;;8.96;100.00;101291.38;5055734;28;20032;-75
2022/10/26 03:55:49;;;;;;;15.82;6.90;;;;;;;8.99;100.00;101285.84;5055363;28;20042;-75
2022/10/26 03:58:14;;;;;;;21.05;7.07;;;;;;;9.01;100.00;101283.06;5056036;28;20036;-75
2022/10/26 04:00:39;;;;;;;10.45;6.18;;;;;;;9.01;100.00;101280.41;5055641;28;20033;-75
2022/10/26 04:03:05;;;;;;;11.55;6.15;;;;;;;9.01;100.00;101275.13;5055536;28;20029;-75
2022/10/26 04:05:31;;;;;;;9.50;5.65;;;;;;;9.00;100.00;101278.72;5055388;28;20037;-76
2022/10/26 04:07:58;;;;;;;9.25;5.45;;;;;;;8.99;100.00;101277.06;5055847;28;20032;-75
2022/10/26 04:10:25;;;;;;;11.55;5.55;;;;;;;8.99;100.00;101274.41;5056149;28;20039;-75
2022/10/26 04:12:51;;;;;;;13.57;5.82;;;;;;;8.99;100.00;101277.88;5055051;28;20036;-75
2022/10/26 04:15:17;;;;;;;10.45;5.65;;;;;;;9.03;100.00;101280.31;5055795;28;20036;-75
2022/10/26 04:17:42;;;;;;;13.90;6.15;;;;;;;9.04;100.00;101280.19;5055379;28;20028;-76
2022/10/26 04:20:08;;;;;;;12.63;6.32;;;;;;;9.08;100.00;101280.81;5055542;28;20116;-75
2022/10/26 04:22:35;;;;;;;9.90;6.00;;;;;;;9.14;100.00;101281.16;5054639;28;20060;-75
2022/10/26 04:25:01;;;;;;;14.07;6.13;;;;;;;9.15;100.00;101282.88;5055595;28;20041;-75
2022/10/26 04:27:26;;;;;;;14.07;5.68;;;;;;;9.20;100.00;101289.63;5055425;28;20041;-75
2022/10/26 04:29:51;;;;;;;15.35;7.07;;;;;;;9.21;100.00;101289.50;5054867;28;20079;-74
2022/10/26 04:32:17;;;;;;;11.15;5.55;;;;;;;9.22;100.00;101280.56;5055411;28;20033;-75
2022/10/26 04:34:42;;;;;;;11.95;5.80;;;;;;;9.24;100.00;101283.09;5054941;28;20052;-75
2022/10/26 04:37:07;;;;;;;8.95;5.22;;;;;;;9.24;100.00;101280.44;5055177;28;20500;-74
2022/10/26 04:39:32;;;;;;;10.23;5.70;;;;;;;9.27;100.00;101278.41;5054819;28;20036;-75
2022/10/26 04:41:58;;;;;;;9.07;5.13;;;;;;;9.30;100.00;101282.63;5055578;28;20047;-74
2022/10/26 04:44:23;;;;;;;13.45;5.95;;;;;;;9.31;100.00;101274.53;5054267;28;20029;-75
2022/10/26 04:46:48;;;;;;;12.25;5.25;;;;;;;9.35;100.00;101275.16;5054589;28;20037;-75
2022/10/26 04:49:14;;;;;;;8.65;5.20;;;;;;;9.38;100.00;101276.72;5055046;28;20420;-74
2022/10/26 04:51:39;;;;;;;14.20;5.30;;;;;;;9.39;100.00;101275.75;5054530;28;20025;-76
2022/10/26 04:54:05;;;;;;;10.88;5.22;;;;;;;9.40;100.00;101278.28;5054953;28;20097;-75
2022/10/26 04:56:30;;;;;;;13.93;5.32;;;;;;;9.40;100.00;101272.97;5054892;28;20382;-75
2022/10/26 04:58:55;;;;;;;8.27;5.05;;;;;;;9.42;100.00;101278.16;5054437;28;20037;-76
2022/10/26 05:01:21;;;;;;;11.73;5.18;;;;;;;9.44;100.00;101274.41;5054762;28;20059;-75
2022/10/26 05:03:53;;;;;;;12.93;5.18;;;;;;;9.48;100.00;101277.66;5053963;28;20065;-75
2022/10/26 05:06:20;;;;;;;9.35;5.32;;;;;;;9.49;100.00;101282.88;5054556;28;20025;-75
2022/10/26 05:08:46;;;;;;;10.35;5.07;;;;;;;9.52;100.00;101284.44;5053936;28;20338;-74
2022/10/26 05:11:11;;;;;;;9.65;5.13;;;;;;;9.53;100.00;101276.34;5054306;28;20044;-75
2022/10/26 05:13:36;;;;;;;9.18;4.82;;;;;;;9.56;100.00;101274.44;5054125;28;20033;-75
2022/10/26 05:16:02;;;;;;;8.50;4.60;;;;;;;9.59;100.00;101276.84;5054661;28;20033;-75
2022/10/26 05:18:27;;;;;;;12.80;4.82;;;;;;;9.61;100.00;101274.91;5054543;28;20116;-75
2022/10/26 05:20:53;;;;;;;8.77;4.30;;;;;;;9.63;100.00;101280.91;5053892;28;20052;-75
2022/10/26 05:23:18;;;;;;;9.38;4.78;;;;;;;9.64;100.00;101275.50;5054389;28;20029;-74
2022/10/26 05:25:44;;;;;;;15.95;4.75;;;;;;;9.66;100.00;101270.06;5054263;28;20045;-76
2022/10/26 05:28:14;;;;;;;9.73;4.43;;;;;;;9.70;100.00;101276.81;5036186;28;20037;-75
2022/10/26 05:30:41;;;;;;;11.68;4.68;;;;;;;9.71;100.00;101281.16;5053680;28;20086;-76
2022/10/26 05:33:09;;;;;;;9.07;4.68;;;;;;;9.72;100.00;101280.22;5054264;28;20048;-76
2022/10/26 05:35:35;;;;;;;8.90;4.70;;;;;;;9.72;100.00;101277.56;5054160;28;20393;-75
2022/10/26 05:38:16;;;;;;;8.65;4.20;;;;;;;9.69;100.00;101277.81;5053548;28;20037;-75
2022/10/26 05:40:52;;;;;;;7.53;4.35;;;;;;;9.64;100.00;101266.69;5053625;28;20033;-75
2022/10/26 05:43:19;;;;;;;6.75;4.00;;;;;;;9.60;100.00;101266.09;5053931;28;20382;-75
2022/10/26 05:45:44;;;;;;;11.30;4.45;;;;;;;9.57;100.00;101266.34;5053866;28;20040;-75
2022/10/26 05:48:10;;;;;;;10.73;4.25;;;;;;;9.56;100.00;101275.25;5053995;28;20025;-75
2022/10/26 05:50:36;;;;;;;8.88;4.07;;;;;;;9.56;100.00;101266.47;5053773;28;20071;-74
2022/10/26 05:53:02;;;;;;;9.98;4.45;;;;;;;9.55;100.00;101267.41;5053356;28;20493;-75
2022/10/26 05:55:27;;;;;;;10.00;4.40;;;;;;;9.57;100.00;101266.34;5052467;28;20071;-74
2022/10/26 05:57:53;;;;;;;7.97;4.20;;;;;;;9.60;100.00;101273.19;5035436;28;20037;-75
2022/10/26 06:00:24;;;;;;;8.00;4.25;;;;;;;9.60;100.00;101268.75;5035642;28;20422;-74
2022/10/26 06:03:19;;;;;;;8.05;4.25;;;;;;;9.61;100.00;101258.94;5053116;28;20461;-75
2022/10/26 06:05:51;;;;;;;7.60;3.88;;;;;;;9.60;100.00;101267.88;5053377;28;20044;-74
2022/10/26 06:08:16;;;;;;;7.97;3.70;;;;;;;9.58;100.00;101269.81;5053142;28;20055;-75
2022/10/26 06:10:42;;;;;;;10.75;4.00;;;;;;;9.59;100.00;101271.53;5052947;28;20479;-75
2022/10/26 06:13:08;;;;;;;8.38;4.10;;;;;;;9.58;100.00;101270.66;5053301;28;20044;-74
2022/10/26 06:15:44;;;;;;;8.52;3.70;;;;;;;9.55;100.00;101270.06;5053011;28;20025;-74
2022/10/26 06:18:34;;;;;;;7.20;3.83;;;;;;;9.45;100.00;101270.81;5053390;28;20025;-74
2022/10/26 06:21:14;;;;;;;6.28;4.18;;;;;;;9.40;100.00;101269.47;5052577;28;20045;-75
2022/10/26 06:24:18;;;;;;;11.23;4.53;;;;;;;9.33;100.00;101263.78;5052855;28;20123;-75
2022/10/26 06:27:25;;;;;;;11.05;4.05;;;;;;;9.30;100.00;101266.69;5052805;28;20033;-75
2022/10/26 06:30:19;;;;;;;8.20;4.00;;;;;;;9.28;100.00;101271.28;4971459;28;20039;-76
2022/10/26 06:32:45;;;;;;;11.25;4.45;;;;;;;9.27;100.00;101261.63;4969118;28;20130;-75
2022/10/26 06:35:29;;;;;;;9.90;4.45;;;;;;;9.26;100.00;101265.25;5027131;28;20059;-75
2022/10/26 06:37:55;;;;;;;6.78;3.80;;;;;;;9.25;100.00;101279.50;5052682;28;20036;-75
2022/10/26 06:40:22;;;;;;;7.05;3.80;;;;;;;9.27;100.00;101274.88;5052922;28;20066;-74
2022/10/26 06:42:48;;;;;;;6.68;3.75;;;;;;;9.33;100.00;101295.66;5052392;28;20112;-74
2022/10/26 06:45:15;;;;;;;8.60;4.10;;;;;;;9.32;100.00;101299.28;5052688;28;20139;-74
2022/10/26 06:48:02;;;;;;;10.07;4.35;;;;;;;9.30;100.00;101296.75;5052542;28;20413;-74
2022/10/26 06:50:39;;;;;;;6.32;3.85;;;;;;;9.29;100.00;101296.88;5052754;28;20036;-74
2022/10/26 06:53:37;;;;;;;6.90;3.97;;;;;;;9.29;100.00;101302.19;5052219;28;20481;-75
2022/10/26 06:56:02;;;;;;;6.28;3.75;;;;;;;9.30;100.00;101294.09;5051919;28;20104;-74
2022/10/26 06:58:32;;;;;;;9.27;3.70;;;;;;;9.30;100.00;101291.44;5034910;28;20090;-74
2022/10/26 07:00:57;;;;;;;8.68;3.60;;;;;;;9.31;100.00;101281.66;5051003;28;20112;-75
2022/10/26 07:03:23;;;;;;;6.72;3.63;;;;;;;9.33;100.00;101279.72;5052702;28;20124;-75
2022/10/26 07:05:48;;;;;;;9.82;3.78;;;;;;;9.37;100.00;101293.63;5052080;28;20457;-75
2022/10/26 07:08:14;;;;;;;8.93;4.18;;;;;;;9.44;100.00;101305.47;5052576;28;20037;-74
2022/10/26 07:10:41;;;;;;;9.02;4.22;;;;;;;9.51;100.00;101304.84;5052515;28;20036;-75
2022/10/26 07:13:08;;;;;;;11.25;4.30;;;;;;;9.64;100.00;101311.84;5051872;28;20571;-74
2022/10/26 07:15:35;;;;;;;8.00;4.03;;;;;;;9.70;100.00;101314.88;5052253;28;20033;-75
2022/10/26 07:18:02;;;;;;;8.07;3.70;;;;;;;9.79;100.00;101315.97;5052154;28;20036;-75
2022/10/26 07:20:27;;;;;;;8.73;4.05;;;;;;;9.86;100.00;101322.44;5052305;28;20029;-75
2022/10/26 07:22:56;;;;;;;11.00;3.75;;;;;;;9.93;100.00;101324.63;5050659;28;20108;-75
2022/10/26 07:25:22;;;;;;;6.70;3.60;;;;;;;10.02;100.00;101327.41;5052722;28;20037;-74
2022/10/26 07:27:47;;;;;;;7.93;3.70;;;;;;;10.13;100.00;101326.53;5052421;28;20116;-74
2022/10/26 07:30:13;;;;;;;7.80;3.55;;;;;;;10.24;100.00;101338.97;5051650;28;20453;-75
2022/10/26 07:32:38;;;;;;;7.63;3.42;;;;;;;10.30;100.00;101338.47;5052295;28;20033;-75
2022/10/26 07:35:04;;;;;;;12.27;3.80;;;;;;;10.33;100.00;101348.88;5051887;28;20105;-75
2022/10/26 07:37:30;;;;;;;5.70;3.08;;;;;;;10.38;100.00;101357.31;5052247;28;20313;-75
2022/10/26 07:39:55;;;;;;;13.75;3.15;;;;;;;10.45;100.00;101356.81;5051903;28;20469;-76
2022/10/26 07:42:21;;;;;;;8.65;3.40;;;;;;;10.51;100.00;101354.50;5052145;28;20099;-75
2022/10/26 07:44:46;;;;;;;8.30;3.17;;;;;;;10.61;100.00;101362.56;5052068;28;20484;-75
2022/10/26 07:47:11;;;;;;;5.85;3.10;;;;;;;10.75;100.00;101366.78;5033859;28;20044;-75
2022/10/26 07:49:37;;;;;;;7.57;2.97;;;;;;;10.91;100.00;101364.50;5052007;28;20068;-76
2022/10/26 07:52:03;;;;;;;3.92;2.67;;;;;;;11.07;100.00;101364.06;5051799;28;20029;-76
2022/10/26 07:54:28;;;;;;;5.07;2.78;;;;;;;11.27;100.00;101367.69;5051793;28;20043;-74
2022/10/26 07:56:53;;;;;;;5.25;2.38;;;;;;;11.52;100.00;101370.91;5051753;28;20036;-76
2022/10/26 07:59:19;;;;;;;4.97;2.72;;;;;;;11.71;100.00;101370.16;5052099;28;20108;-74
2022/10/26 08:01:44;;;;;;;5.80;2.58;;;;;;;11.91;100.00;101368.44;5051884;28;20067;-77
2022/10/26 08:04:10;;;;;;;9.30;2.50;;;;;;;12.10;100.00;101377.50;5051590;28;20052;-76
2022/10/26 08:06:35;;;;;;;7.93;2.80;;;;;;;12.30;100.00;101362.38;5052025;28;20104;-75
2022/10/26 08:09:01;;;;;;;4.93;2.55;;;;;;;12.43;100.00;101348.78;5050175;28;20068;-76
2022/10/26 08:11:26;;;;;;;5.15;2.65;;;;;;;12.50;100.00;101348.09;5051874;28;20041;-76
2022/10/26 08:13:53;;;;;;;14.52;3.10;;;;;;;12.53;100.00;101352.31;5051874;28;20036;-75
2022/10/26 08:16:18;;;;;;;5.47;2.50;;;;;;;12.59;100.00;101345.56;5033810;28;20036;-76
2022/10/26 08:18:47;;;;;;;5.78;2.40;;;;;;;12.70;100.00;101343.63;5053004;28;20115;-74
2022/10/26 08:21:13;;;;;;;9.15;2.30;;;;;;;12.86;100.00;101332.34;5055186;28;20060;-75
2022/10/26 08:23:38;;;;;;;6.72;2.75;;;;;;;13.01;100.00;101331.91;5055390;28;20029;-74
2022/10/26 08:26:03;;;;;;;5.35;2.72;;;;;;;13.19;100.00;101337.38;5055139;28;20092;-75
2022/10/26 08:28:29;;;;;;;10.15;2.45;;;;;;;13.35;100.00;101340.31;5055452;28;20117;-76
2022/10/26 08:30:55;;;;;;;6.40;2.28;;;;;;;13.53;100.00;101358.28;5055434;28;20037;-75
2022/10/26 08:33:21;;;;;;;5.40;2.20;;;;;;;13.71;100.00;101356.50;5054659;28;20060;-76
2022/10/26 08:35:46;;;;;;;6.30;2.17;;;;;;;13.91;100.00;101351.06;5055405;28;20124;-75
2022/10/26 08:38:12;;;;;;;5.95;2.80;;;;;;;14.14;100.00;101364.03;5054619;28;20496;-75
2022/10/26 08:40:40;;;;;;;7.15;2.53;;;;;;;14.36;100.00;101371.66;5055279;28;20033;-76
2022/10/26 08:43:25;;;;;;;7.95;2.88;;;;;;;14.63;100.00;101373.47;5036903;28;20025;-76
2022/10/26 08:46:13;;;;;;;5.85;2.25;;;;;;;14.84;100.00;101380.38;5055062;28;20421;-75
2022/10/26 08:48:43;;;;;;;4.80;2.20;;;;;;;15.01;100.00;101375.16;5054946;28;20400;-77
2022/10/26 08:51:17;;;;;;;5.22;2.15;;;;;;;15.13;100.00;101377.41;5054603;28;20443;-77
2022/10/26 08:53:45;;;;;;;6.13;2.42;;;;;;;15.19;100.00;101375.94;5055080;28;20064;-76
2022/10/26 08:56:16;;;;;;;7.45;2.75;;;;;;;15.15;100.00;101374.56;5054602;28;20035;-77
2022/10/26 08:58:51;;;;;;;4.68;2.35;;;;;;;15.11;100.00;101379.41;5037120;28;20060;-75
2022/10/26 09:01:17;;;;;;;9.73;2.45;;;;;;;15.32;100.00;101380.91;5036688;28;20029;-76
2022/10/26 09:03:42;;;;;;;6.18;2.25;;;;;;;15.44;100.00;101376.13;5054906;28;20052;-77
2022/10/26 09:06:32;;;;;;;4.38;2.20;;;;;;;15.74;100.00;101384.66;5054460;28;20029;-77
2022/10/26 09:09:06;;;;;;;4.63;2.00;;;;;;;16.14;100.00;101400.13;5054819;28;20033;-76
2022/10/26 09:11:47;;;;;;;7.25;2.45;;;;;;;16.28;100.00;101397.84;5054599;28;20037;-77
2022/10/26 09:14:27;;;;;;;7.40;2.50;;;;;;;16.48;100.00;101396.56;5054289;28;20025;-76
2022/10/26 09:17:22;;;;;;;5.30;2.05;;;;;;;16.57;100.00;101390.19;5054894;28;20036;-76
2022/10/26 09:20:02;;;;;;;7.95;2.55;;;;;;;16.95;100.00;101399.69;5054485;28;20021;-76
2022/10/26 09:22:54;;;;;;;7.35;2.30;;;;;;;17.74;100.00;101398.06;5053924;28;20049;-76
2022/10/26 09:25:22;;;;;;;7.05;2.78;;;;;;;18.01;100.00;101405.91;5054341;28;20033;-75
2022/10/26 09:27:52;;;;;;;8.13;2.10;;;;;;;18.57;100.00;101408.47;5054409;28;20029;-77
2022/10/26 09:30:20;;;;;;;7.40;2.40;;;;;;;19.41;100.00;101404.97;5035955;28;20113;-77
2022/10/26 09:32:48;;;;;;;6.68;2.38;;;;;;;19.63;100.00;101405.91;5054356;28;20033;-78
2022/10/26 09:35:21;;;;;;;5.68;2.50;;;;;;;19.39;100.00;101402.44;5053916;28;20036;-77
2022/10/26 09:38:30;;;;;;;8.65;2.35;;;;;;;19.61;99.44;101410.69;5053947;28;20040;-78
2022/10/26 09:41:14;;;;;;;5.57;2.33;;;;;;;19.24;100.00;101420.47;5027229;28;20047;-77
2022/10/26 09:43:56;;;;;;;11.27;2.75;;;;;;;18.69;100.00;101428.63;5053810;28;20465;-77
2022/10/26 09:46:33;;;;;;;7.30;2.10;;;;;;;18.43;100.00;101424.38;5053704;28;20032;-77
2022/10/26 09:49:05;;;;;;;4.53;2.13;;;;;;;18.10;100.00;101429.09;5054409;28;20031;-77
2022/10/26 09:51:35;;;;;;;10.05;2.40;;;;;;;17.59;100.00;101415.94;5053860;28;20032;-77
2022/10/26 09:54:02;;;;;;;4.65;1.65;;;;;;;17.69;100.00;101427.34;5053656;28;20029;-76
2022/10/26 09:56:29;;;;;;;5.65;2.53;;;;;;;17.80;100.00;101431.50;5053443;28;20087;-77
2022/10/26 09:59:03;;;;;;;7.70;2.05;;;;;;;17.81;100.00;101438.59;5053646;28;20330;-76
2022/10/26 10:01:31;;;;;;;6.47;2.13;;;;;;;17.86;100.00;101438.06;5053409;28;20041;-77
2022/10/26 10:04:24;;;;;;;9.50;2.22;;;;;;;18.04;100.00;101446.78;5053606;28;20041;-78
2022/10/26 10:07:14;;;;;;;12.45;2.65;;;;;;;18.01;100.00;101457.91;5050582;28;20079;-75
2022/10/26 10:09:39;;;;;;;5.07;2.03;;;;;;;17.74;100.00;101468.03;5053762;28;20103;-77
2022/10/26 10:12:16;;;;;;;11.32;2.35;;;;;;;17.41;100.00;101472.59;5053507;28;20465;-77
2022/10/26 10:14:55;;;;;;;9.55;2.47;;;;;;;17.07;100.00;101481.66;5053243;28;20473;-76
2022/10/26 10:17:22;;;;;;;7.80;2.10;;;;;;;16.90;100.00;101486.19;5053359;28;20377;-77
2022/10/26 10:19:48;;;;;;;6.95;2.58;;;;;;;16.67;100.00;101489.44;5053387;28;20082;-76
2022/10/26 10:22:13;;;;;;;6.72;2.50;;;;;;;16.57;100.00;101497.66;5052979;28;20428;-77
2022/10/26 10:24:41;;;;;;;8.93;2.35;;;;;;;16.42;100.00;101498.41;5053019;28;20120;-77
2022/10/26 10:27:14;;;;;;;5.22;2.15;;;;;;;16.33;100.00;101500.22;5053133;28;20033;-77
2022/10/26 10:29:44;;;;;;;8.93;2.42;;;;;;;16.26;100.00;101493.78;5053091;28;20094;-78
2022/10/26 10:32:19;;;;;;;8.02;2.28;;;;;;;16.32;100.00;101496.69;5052933;28;20386;-77
2022/10/26 10:34:48;;;;;;;6.80;2.08;;;;;;;16.48;100.00;101501.31;5053161;28;20505;-78
2022/10/26 10:37:27;;;;;;;9.13;2.45;;;;;;;16.60;100.00;101491.13;5053032;28;20078;-78
2022/10/26 10:40:23;;;;;;;4.47;2.10;;;;;;;16.75;100.00;101508.28;5054146;28;20059;-78
2022/10/26 10:42:51;;;;;;;6.78;2.20;;;;;;;16.96;100.00;101516.91;5050398;28;20076;-77
2022/10/26 10:45:28;;;;;;;4.55;2.00;;;;;;;17.22;100.00;101511.41;5052497;28;20037;-78
2022/10/26 10:48:12;;;;;;;5.88;2.20;;;;;;;17.34;100.00;101498.50;5052874;28;20043;-78
2022/10/26 10:50:38;;;;;;;6.70;2.63;;;;;;;17.30;100.00;101505.22;5035461;28;20032;-77
2022/10/26 10:53:15;;;;;;;9.48;2.38;;;;;;;17.15;100.00;101511.22;5052925;28;20025;-78
2022/10/26 10:55:45;;;;;;;9.20;2.17;;;;;;;17.16;100.00;101512.09;5052889;28;20385;-77
2022/10/26 10:58:33;;;;;;;11.02;2.40;;;;;;;17.15;100.00;101513.91;5052471;28;20027;-78
2022/10/26 11:00:59;;;;;;;5.22;2.00;;;;;;;17.28;100.00;101532.25;5052730;28;20032;-78
2022/10/26 11:03:36;;;;;;;9.73;2.10;;;;;;;17.46;100.00;101526.72;5034394;28;20028;-77
2022/10/26 11:06:16;;;;;;;9.15;2.10;;;;;;;17.60;100.00;101527.91;5034905;28;20052;-78
2022/10/26 11:08:44;;;;;;;8.57;2.25;;;;;;;17.73;100.00;101530.09;5034991;28;20029;-77
2022/10/26 11:11:35;;;;;;;10.82;2.30;;;;;;;17.86;100.00;101534.97;5052314;28;20033;-78
2022/10/26 11:14:22;;;;;;;7.60;2.20;;;;;;;17.94;100.00;101535.84;5052574;28;20469;-78
2022/10/26 11:17:01;;;;;;;9.63;2.00;;;;;;;17.94;100.00;101535.84;5034490;28;20060;-78
2022/10/26 11:19:29;;;;;;;7.38;2.30;;;;;;;17.94;100.00;101543.91;5052053;28;20086;-78
2022/10/26 11:21:55;;;;;;;5.57;2.08;;;;;;;17.89;100.00;101545.38;5052361;28;20441;-77
2022/10/26 11:24:42;;;;;;;6.82;2.22;;;;;;;17.87;100.00;101542.88;5051519;28;20025;-78
2022/10/26 11:27:16;;;;;;;11.98;2.88;;;;;;;18.11;100.00;101547.41;5052455;28;20041;-77
2022/10/26 11:29:58;;;;;;;10.07;2.42;;;;;;;18.36;100.00;101554.56;5052749;28;20037;-78
2022/10/26 11:32:34;;;;;;;7.43;2.53;;;;;;;18.36;100.00;101539.22;5051955;28;20037;-78
2022/10/26 11:35:20;;;;;;;8.07;2.65;;;;;;;18.54;100.00;101547.09;5052127;28;20040;-78
2022/10/26 11:37:59;;;;;;;7.78;3.38;;;;;;;18.37;100.00;101557.09;5052385;28;20063;-78